createdAt,value
2022-10-19T00:00:44.652Z,13.00
2022-10-19T00:02:37.150Z,13.00
2022-10-19T00:04:09.655Z,13.00
2022-10-19T00:05:41.997Z,13.00
2022-10-19T00:07:14.408Z,12.90
2022-10-19T00:08:46.656Z,12.90
2022-10-19T00:10:18.879Z,12.80
2022-10-19T00:11:51.684Z,12.80
2022-10-19T00:13:23.903Z,12.80
2022-10-19T00:14:57.182Z,12.80
2022-10-19T00:16:32.239Z,12.80
2022-10-19T00:18:04.382Z,12.70
2022-10-19T00:19:36.607Z,12.70
2022-10-19T00:21:10.060Z,12.70
2022-10-19T00:22:42.180Z,12.60
2022-10-19T00:24:15.091Z,12.60
2022-10-19T00:25:55.971Z,12.60
2022-10-19T00:27:28.021Z,12.60
2022-10-19T00:29:00.916Z,12.50
2022-10-19T00:30:37.854Z,12.50
2022-10-19T00:32:09.978Z,12.60
2022-10-19T00:33:46.515Z,12.50
2022-10-19T00:35:18.547Z,12.50
2022-10-19T00:36:50.851Z,12.50
2022-10-19T00:38:23.105Z,12.50
2022-10-19T00:39:55.283Z,12.50
2022-10-19T00:41:30.864Z,12.50
2022-10-19T00:43:03.054Z,12.50
2022-10-19T00:44:35.327Z,12.50
2022-10-19T00:46:13.677Z,12.50
2022-10-19T00:47:46.066Z,12.50
2022-10-19T00:49:28.352Z,12.40
2022-10-19T00:51:01.036Z,12.40
2022-10-19T00:52:33.518Z,12.40
2022-10-19T00:54:08.416Z,12.40
2022-10-19T00:55:41.486Z,12.40
2022-10-19T00:57:14.346Z,12.40
2022-10-19T00:58:46.879Z,12.40
2022-10-19T01:00:18.939Z,12.50
2022-10-19T01:01:52.648Z,12.50
2022-10-19T01:03:24.991Z,12.50
2022-10-19T01:04:59.343Z,12.50
2022-10-19T01:06:32.667Z,12.50
2022-10-19T01:08:06.039Z,12.50
2022-10-19T01:09:38.246Z,12.50
2022-10-19T01:11:36.375Z,12.40
2022-10-19T01:13:27.150Z,12.50
2022-10-19T01:15:16.410Z,12.50
2022-10-19T01:17:03.710Z,12.40
2022-10-19T01:18:49.597Z,12.50
2022-10-19T01:21:10.169Z,12.50
2022-10-19T01:22:47.907Z,12.50
2022-10-19T01:24:43.337Z,12.40
2022-10-19T01:26:52.520Z,12.40
2022-10-19T01:28:46.128Z,12.40
2022-10-19T01:30:41.757Z,12.50
2022-10-19T01:32:28.522Z,12.40
2022-10-19T01:34:13.612Z,12.40
2022-10-19T01:35:58.148Z,12.40
2022-10-19T01:37:50.858Z,12.40
2022-10-19T01:39:54.981Z,12.40
2022-10-19T01:41:43.070Z,12.40
2022-10-19T01:43:21.325Z,12.40
2022-10-19T01:45:02.506Z,12.40
2022-10-19T01:46:39.980Z,12.30
2022-10-19T01:48:23.301Z,12.40
2022-10-19T01:50:01.818Z,12.40
2022-10-19T01:51:39.295Z,12.40
2022-10-19T01:53:14.026Z,12.30
2022-10-19T01:54:50.695Z,12.30
2022-10-19T01:56:27.332Z,12.30
2022-10-19T01:58:09.539Z,12.30
2022-10-19T01:59:43.979Z,12.30
2022-10-19T02:01:20.957Z,12.30
2022-10-19T02:02:54.664Z,12.30
2022-10-19T02:04:26.875Z,12.30
2022-10-19T02:06:00.381Z,12.30
2022-10-19T02:07:33.819Z,12.20
2022-10-19T02:09:05.810Z,12.20
2022-10-19T02:10:39.719Z,12.20
2022-10-19T02:12:13.140Z,12.30
2022-10-19T02:13:48.924Z,12.20
2022-10-19T02:15:23.762Z,12.30
2022-10-19T02:17:02.554Z,12.30
2022-10-19T02:18:40.678Z,12.30
2022-10-19T02:20:13.940Z,12.30
2022-10-19T02:21:46.509Z,12.30
2022-10-19T02:23:22.157Z,12.20
2022-10-19T02:24:54.161Z,12.30
2022-10-19T02:26:26.912Z,12.30
2022-10-19T02:28:01.263Z,12.30
2022-10-19T02:29:34.687Z,12.20
2022-10-19T02:31:06.748Z,12.20
2022-10-19T02:32:39.438Z,12.20
2022-10-19T02:34:11.936Z,12.10
2022-10-19T02:35:44.224Z,12.00
2022-10-19T02:37:16.489Z,12.00
2022-10-19T02:38:49.085Z,12.00
2022-10-19T02:40:22.124Z,12.00
2022-10-19T02:42:01.722Z,11.90
2022-10-19T02:43:37.029Z,11.80
2022-10-19T02:45:16.241Z,11.80
2022-10-19T02:47:05.499Z,11.80
2022-10-19T02:48:39.171Z,11.70
2022-10-19T02:50:11.948Z,11.60
2022-10-19T02:52:10.248Z,11.60
2022-10-19T02:53:42.576Z,11.50
2022-10-19T02:55:14.616Z,11.50
2022-10-19T02:56:46.622Z,11.40
2022-10-19T02:58:19.111Z,11.40
2022-10-19T02:59:52.475Z,11.40
2022-10-19T03:01:24.848Z,11.40
2022-10-19T03:02:57.055Z,11.40
2022-10-19T03:04:29.075Z,11.30
2022-10-19T03:06:01.166Z,11.30
2022-10-19T03:07:33.777Z,11.30
2022-10-19T03:09:06.011Z,11.20
2022-10-19T03:10:38.052Z,11.10
2022-10-19T03:12:11.114Z,11.10
2022-10-19T03:13:43.510Z,11.00
2022-10-19T03:15:17.863Z,11.00
2022-10-19T03:16:50.179Z,11.00
2022-10-19T03:18:22.198Z,10.90
2022-10-19T03:19:54.192Z,10.90
2022-10-19T03:21:26.447Z,10.80
2022-10-19T03:22:58.484Z,10.80
2022-10-19T03:24:31.320Z,10.80
2022-10-19T03:26:19.175Z,10.70
2022-10-19T03:27:51.313Z,10.70
2022-10-19T03:29:23.647Z,10.60
2022-10-19T03:30:56.060Z,10.50
2022-10-19T03:32:28.059Z,10.50
2022-10-19T03:34:00.128Z,10.50
2022-10-19T03:35:32.358Z,10.40
2022-10-19T03:37:04.347Z,10.40
2022-10-19T03:38:36.342Z,10.40
2022-10-19T03:40:09.306Z,10.30
2022-10-19T03:41:41.799Z,10.30
2022-10-19T03:43:13.795Z,10.20
2022-10-19T03:44:46.268Z,10.20
2022-10-19T03:46:18.896Z,10.20
2022-10-19T03:47:51.750Z,10.10
2022-10-19T03:49:23.983Z,10.10
2022-10-19T03:51:01.333Z,10.10
2022-10-19T03:52:33.428Z,10.10
2022-10-19T03:54:08.496Z,10.00
2022-10-19T03:55:40.494Z,10.00
2022-10-19T03:57:12.887Z,10.00
2022-10-19T03:58:46.979Z,9.90
2022-10-19T04:00:19.071Z,9.90
2022-10-19T04:01:51.092Z,9.90
2022-10-19T04:03:23.370Z,9.80
2022-10-19T04:04:55.410Z,9.80
2022-10-19T04:06:33.259Z,9.80
2022-10-19T04:08:05.606Z,9.70
2022-10-19T04:09:48.168Z,9.70
2022-10-19T04:11:26.603Z,9.70
2022-10-19T04:12:58.611Z,9.70
2022-10-19T04:14:33.148Z,9.70
2022-10-19T04:16:13.678Z,9.80
2022-10-19T04:17:48.616Z,9.80
2022-10-19T04:19:20.960Z,9.80
2022-10-19T04:21:00.331Z,9.80
2022-10-19T04:22:32.497Z,9.80
2022-10-19T04:24:10.922Z,9.80
2022-10-19T04:25:42.936Z,9.80
2022-10-19T04:27:14.982Z,9.90
2022-10-19T04:28:49.741Z,9.90
2022-10-19T04:30:21.928Z,9.90
2022-10-19T04:31:53.914Z,9.90
2022-10-19T04:33:26.151Z,9.90
2022-10-19T04:34:58.139Z,9.90
2022-10-19T04:36:30.226Z,9.90
2022-10-19T04:38:02.465Z,9.90
2022-10-19T04:39:34.584Z,9.90
2022-10-19T04:41:09.867Z,9.90
2022-10-19T04:42:41.950Z,9.90
2022-10-19T04:44:14.219Z,9.90
2022-10-19T04:45:46.447Z,9.90
2022-10-19T04:47:19.096Z,9.90
2022-10-19T04:48:51.566Z,9.90
2022-10-19T04:50:24.814Z,9.90
2022-10-19T04:51:56.914Z,9.90
2022-10-19T04:53:29.318Z,9.90
2022-10-19T04:55:01.694Z,9.90
2022-10-19T04:56:33.785Z,9.90
2022-10-19T04:58:06.003Z,9.90
2022-10-19T04:59:38.087Z,9.90
2022-10-19T05:01:12.969Z,10.00
2022-10-19T05:02:46.056Z,9.90
2022-10-19T05:04:18.307Z,10.00
2022-10-19T05:05:50.346Z,10.00
2022-10-19T05:07:22.367Z,10.00
2022-10-19T05:08:54.791Z,10.00
2022-10-19T05:10:26.931Z,10.00
2022-10-19T05:11:58.920Z,10.00
2022-10-19T05:13:32.989Z,10.00
2022-10-19T05:15:05.455Z,10.10
2022-10-19T05:16:37.553Z,10.00
2022-10-19T05:18:09.880Z,10.00
2022-10-19T05:19:42.323Z,10.00
2022-10-19T05:21:15.055Z,10.00
2022-10-19T05:22:47.368Z,10.00
2022-10-19T05:24:19.379Z,10.00
2022-10-19T05:26:02.918Z,10.00
2022-10-19T05:27:35.533Z,10.00
2022-10-19T05:29:12.244Z,10.00
2022-10-19T05:30:48.845Z,10.00
2022-10-19T05:32:21.362Z,10.00
2022-10-19T05:33:54.170Z,10.00
2022-10-19T05:35:26.733Z,10.00
2022-10-19T05:36:58.961Z,10.10
2022-10-19T05:38:31.206Z,10.10
2022-10-19T05:40:03.495Z,10.10
2022-10-19T05:41:36.263Z,10.10
2022-10-19T05:43:08.512Z,10.10
2022-10-19T05:44:40.715Z,10.20
2022-10-19T05:46:18.239Z,10.10
2022-10-19T05:47:50.260Z,10.20
2022-10-19T05:49:22.506Z,10.20
2022-10-19T05:50:55.208Z,10.20
2022-10-19T05:52:28.022Z,10.20
2022-10-19T05:54:00.290Z,10.20
2022-10-19T05:55:35.689Z,10.20
2022-10-19T05:57:07.715Z,10.20
2022-10-19T05:58:40.229Z,10.20
2022-10-19T06:00:12.945Z,10.30
2022-10-19T06:01:46.505Z,10.30
2022-10-19T06:03:18.884Z,10.30
2022-10-19T06:04:51.357Z,10.30
2022-10-19T06:06:24.399Z,10.30
2022-10-19T06:07:56.447Z,10.30
2022-10-19T06:09:28.783Z,10.30
2022-10-19T06:11:15.774Z,10.30
2022-10-19T06:12:48.071Z,10.30
2022-10-19T06:14:20.419Z,10.30
2022-10-19T06:15:52.574Z,10.30
2022-10-19T06:17:25.011Z,10.30
2022-10-19T06:18:58.053Z,10.30
2022-10-19T06:20:30.859Z,10.30
2022-10-19T06:22:02.937Z,10.40
2022-10-19T06:23:36.004Z,10.40
2022-10-19T06:25:09.094Z,10.40
2022-10-19T06:26:41.866Z,10.40
2022-10-19T06:28:14.333Z,10.50
2022-10-19T06:29:46.331Z,10.50
2022-10-19T06:31:18.344Z,10.50
2022-10-19T06:32:50.797Z,10.50
2022-10-19T06:34:23.140Z,10.50
2022-10-19T06:35:55.227Z,10.60
2022-10-19T06:37:27.554Z,10.50
2022-10-19T06:39:01.656Z,10.60
2022-10-19T06:40:34.877Z,10.60
2022-10-19T06:42:07.320Z,10.60
2022-10-19T06:43:39.771Z,10.70
2022-10-19T06:45:11.880Z,10.70
2022-10-19T06:46:44.101Z,10.70
2022-10-19T06:48:16.112Z,10.70
2022-10-19T06:49:48.215Z,10.80
2022-10-19T06:51:21.116Z,10.80
2022-10-19T06:52:53.135Z,10.80
2022-10-19T06:54:25.726Z,10.80
2022-10-19T06:55:59.338Z,10.80
2022-10-19T06:57:31.994Z,10.90
2022-10-19T06:59:04.848Z,10.90
2022-10-19T07:00:37.336Z,10.90
2022-10-19T07:02:12.018Z,11.00
2022-10-19T07:03:44.007Z,11.00
2022-10-19T07:05:17.381Z,11.00
2022-10-19T07:06:49.406Z,11.00
2022-10-19T07:08:21.703Z,11.10
2022-10-19T07:09:54.111Z,11.10
2022-10-19T07:11:26.219Z,11.20
2022-10-19T07:12:58.519Z,11.20
2022-10-19T07:14:31.559Z,11.30
2022-10-19T07:16:14.666Z,11.30
2022-10-19T07:17:49.935Z,11.30
2022-10-19T07:19:25.476Z,11.40
2022-10-19T07:20:58.766Z,11.40
2022-10-19T07:22:31.208Z,11.50
2022-10-19T07:24:04.155Z,11.50
2022-10-19T07:25:36.749Z,11.50
2022-10-19T07:27:10.917Z,11.60
2022-10-19T07:28:47.739Z,11.60
2022-10-19T07:30:20.660Z,11.60
2022-10-19T07:31:52.759Z,11.60
2022-10-19T07:33:25.060Z,11.60
2022-10-19T07:34:57.081Z,11.60
2022-10-19T07:36:30.807Z,11.60
2022-10-19T07:38:02.971Z,11.60
2022-10-19T07:39:35.252Z,11.60
2022-10-19T07:41:12.734Z,11.70
2022-10-19T07:42:44.759Z,11.60
2022-10-19T07:44:17.007Z,11.70
2022-10-19T07:45:49.034Z,11.70
2022-10-19T07:47:21.028Z,11.70
2022-10-19T07:48:53.839Z,11.70
2022-10-19T07:50:27.752Z,11.80
2022-10-19T07:51:59.899Z,11.80
2022-10-19T07:53:32.484Z,11.80
2022-10-19T07:55:04.779Z,11.90
2022-10-19T07:56:36.966Z,11.90
2022-10-19T07:58:09.222Z,11.90
2022-10-19T07:59:41.286Z,12.00
2022-10-19T08:01:15.959Z,12.00
2022-10-19T08:02:59.771Z,12.00
2022-10-19T08:04:59.593Z,12.00
2022-10-19T08:06:32.874Z,12.00
2022-10-19T08:08:05.563Z,12.00
2022-10-19T08:09:52.735Z,11.90
2022-10-19T08:11:32.562Z,11.90
2022-10-19T08:13:05.151Z,12.00
2022-10-19T08:14:37.441Z,12.00
2022-10-19T08:16:27.009Z,12.00
2022-10-19T08:17:59.923Z,12.00
2022-10-19T08:19:32.282Z,12.00
2022-10-19T08:21:04.423Z,12.10
2022-10-19T08:22:36.864Z,12.10
2022-10-19T08:24:11.067Z,12.10
2022-10-19T08:25:43.505Z,12.20
2022-10-19T08:27:15.575Z,12.30
2022-10-19T08:28:48.276Z,12.30
2022-10-19T08:30:20.342Z,12.40
2022-10-19T08:31:54.515Z,12.40
2022-10-19T08:33:26.812Z,12.50
2022-10-19T08:34:58.852Z,12.50
2022-10-19T08:36:32.550Z,12.50
2022-10-19T08:38:05.193Z,12.60
2022-10-19T08:39:37.288Z,12.60
2022-10-19T08:41:21.821Z,12.60
2022-10-19T08:42:58.251Z,12.70
2022-10-19T08:45:01.310Z,12.70
2022-10-19T08:46:39.870Z,12.70
2022-10-19T08:48:24.973Z,12.80
2022-10-19T08:50:00.756Z,12.90
2022-10-19T08:51:39.992Z,12.90
2022-10-19T08:53:12.267Z,12.80
2022-10-19T08:54:51.722Z,12.80
2022-10-19T08:56:49.816Z,12.80
2022-10-19T08:58:32.934Z,12.80
2022-10-19T09:00:32.927Z,12.80
2022-10-19T09:02:15.496Z,12.90
2022-10-19T09:03:56.550Z,12.90
2022-10-19T09:05:47.845Z,12.90
2022-10-19T09:07:19.824Z,12.90
2022-10-19T09:08:54.338Z,12.90
2022-10-19T09:10:35.489Z,12.90
2022-10-19T09:12:10.271Z,12.90
2022-10-19T09:14:04.281Z,13.00
2022-10-19T09:15:44.457Z,13.00
2022-10-19T09:17:17.422Z,13.00
2022-10-19T09:18:50.652Z,13.10
2022-10-19T09:20:29.726Z,13.00
2022-10-19T09:22:09.060Z,13.00
2022-10-19T09:23:50.180Z,13.00
2022-10-19T09:25:25.702Z,13.10
2022-10-19T09:26:59.968Z,13.10
2022-10-19T09:28:47.715Z,13.10
2022-10-19T09:30:22.641Z,13.00
2022-10-19T09:33:39.311Z,13.10
2022-10-19T09:35:21.752Z,13.20
2022-10-19T09:36:57.384Z,13.20
2022-10-19T09:38:31.552Z,13.20
2022-10-19T09:40:05.669Z,13.20
2022-10-19T09:41:47.026Z,13.10
2022-10-19T09:43:21.818Z,13.10
2022-10-19T09:44:55.143Z,13.10
2022-10-19T09:46:53.856Z,13.20
2022-10-19T09:48:42.407Z,13.10
2022-10-19T09:50:14.362Z,13.10
2022-10-19T09:51:52.299Z,13.00
2022-10-19T09:53:26.697Z,12.90
2022-10-19T09:55:20.000Z,12.90
2022-10-19T09:56:56.167Z,12.90
2022-10-19T09:58:32.930Z,12.90
2022-10-19T10:00:06.157Z,12.80
2022-10-19T10:01:43.848Z,12.80
2022-10-19T10:03:35.279Z,12.80
2022-10-19T10:05:14.331Z,12.80
2022-10-19T10:06:48.448Z,12.80
2022-10-19T10:08:27.278Z,12.70
2022-10-19T10:10:00.734Z,12.70
2022-10-19T10:11:33.951Z,12.70
2022-10-19T10:13:06.619Z,12.70
2022-10-19T10:14:41.904Z,12.70
2022-10-19T10:16:16.619Z,12.70
2022-10-19T10:17:50.011Z,12.70
2022-10-19T10:19:27.368Z,12.60
2022-10-19T10:21:01.568Z,12.70
2022-10-19T10:22:36.551Z,12.70
2022-10-19T10:24:12.154Z,12.80
2022-10-19T10:25:49.078Z,13.10
2022-10-19T10:27:38.725Z,13.40
2022-10-19T10:29:24.730Z,13.40
2022-10-19T10:31:03.651Z,13.40
2022-10-19T10:32:48.136Z,13.40
2022-10-19T10:34:50.155Z,13.40
2022-10-19T10:36:28.335Z,13.40
2022-10-19T10:38:17.179Z,13.40
2022-10-19T10:39:55.879Z,13.40
2022-10-19T10:41:36.668Z,13.40
2022-10-19T10:43:18.091Z,13.40
2022-10-19T10:44:53.341Z,13.40
2022-10-19T10:46:32.767Z,13.40
2022-10-19T10:48:43.439Z,13.40
2022-10-19T10:50:22.671Z,13.40
2022-10-19T10:51:59.903Z,13.40
2022-10-19T10:53:38.628Z,13.50
2022-10-19T10:55:18.034Z,13.50
2022-10-19T10:57:06.829Z,13.50
2022-10-19T10:58:59.496Z,13.60
2022-10-19T11:00:34.480Z,13.60
2022-10-19T11:02:40.031Z,13.50
2022-10-19T11:04:16.637Z,13.40
2022-10-19T11:05:55.923Z,13.40
2022-10-19T11:07:30.246Z,13.20
2022-10-19T11:09:11.640Z,13.10
2022-10-19T11:10:47.676Z,13.00
2022-10-19T11:12:35.026Z,13.00
2022-10-19T11:14:16.431Z,12.90
2022-10-19T11:15:55.611Z,12.90
2022-10-19T11:17:32.019Z,12.90
2022-10-19T11:19:23.377Z,12.90
2022-10-19T11:21:00.322Z,13.00
2022-10-19T11:22:44.801Z,13.20
2022-10-19T11:24:52.859Z,13.40
2022-10-19T11:26:46.604Z,13.80
2022-10-19T11:28:28.363Z,13.90
2022-10-19T11:30:22.027Z,14.10
2022-10-19T11:31:56.463Z,14.10
2022-10-19T11:36:12.735Z,14.10
2022-10-19T11:38:18.756Z,14.10
2022-10-19T11:39:57.851Z,14.10
2022-10-19T11:41:44.642Z,14.10
2022-10-19T11:43:35.986Z,14.00
2022-10-19T11:45:33.785Z,13.90
2022-10-19T11:47:24.129Z,13.90
2022-10-19T11:49:16.650Z,13.90
2022-10-19T11:51:21.659Z,13.90
2022-10-19T11:53:18.150Z,13.90
2022-10-19T11:55:12.422Z,13.80
2022-10-19T11:57:02.871Z,13.80
2022-10-19T11:58:49.857Z,13.90
2022-10-19T12:02:39.752Z,13.60
2022-10-19T12:04:32.866Z,13.40
2022-10-19T12:06:20.363Z,13.30
2022-10-19T12:08:07.839Z,13.30
2022-10-19T12:10:13.012Z,13.10
2022-10-19T12:12:26.588Z,12.90
2022-10-19T12:14:06.150Z,12.70
2022-10-19T12:15:41.713Z,12.60
2022-10-19T12:17:36.356Z,12.60
2022-10-19T12:19:33.819Z,12.60
2022-10-19T12:21:14.254Z,12.60
2022-10-19T12:22:49.308Z,12.60
2022-10-19T12:24:25.470Z,12.60
2022-10-19T12:25:59.988Z,12.70
2022-10-19T12:27:37.054Z,12.60
2022-10-19T12:29:18.218Z,12.70
2022-10-19T12:30:51.689Z,12.60
2022-10-19T12:32:27.076Z,12.60
2022-10-19T12:34:20.410Z,12.50
2022-10-19T12:36:30.191Z,12.60
2022-10-19T12:38:21.798Z,12.50
2022-10-19T12:40:02.521Z,12.40
2022-10-19T12:41:53.233Z,12.30
2022-10-19T12:43:44.918Z,12.30
2022-10-19T12:45:32.697Z,12.30
2022-10-19T12:47:18.166Z,12.20
2022-10-19T12:49:27.986Z,12.20
2022-10-19T12:51:05.758Z,12.20
2022-10-19T12:52:40.696Z,12.20
2022-10-19T12:54:13.865Z,12.20
2022-10-19T12:55:46.242Z,12.30
2022-10-19T12:57:23.702Z,12.30
2022-10-19T12:59:01.718Z,12.30
2022-10-19T13:00:37.592Z,12.30
2022-10-19T13:02:29.380Z,12.30
2022-10-19T13:04:16.354Z,12.40
2022-10-19T13:06:07.831Z,12.50
2022-10-19T13:07:40.361Z,12.50
2022-10-19T13:09:34.400Z,12.50
2022-10-19T13:11:15.383Z,12.60
2022-10-19T13:12:48.392Z,12.60
2022-10-19T13:14:20.845Z,12.70
2022-10-19T13:15:53.183Z,12.80
2022-10-19T13:17:34.798Z,12.80
2022-10-19T13:19:13.273Z,12.90
2022-10-19T13:20:52.109Z,12.90
2022-10-19T13:22:27.359Z,12.90
2022-10-19T13:24:20.476Z,12.90
2022-10-19T13:26:30.846Z,12.90
2022-10-19T13:28:06.251Z,12.90
2022-10-19T13:29:40.842Z,12.90
2022-10-19T13:31:25.139Z,13.00
2022-10-19T13:32:57.358Z,13.00
2022-10-19T13:34:29.447Z,13.10
2022-10-19T13:36:02.505Z,13.10
2022-10-19T13:37:34.947Z,13.20
2022-10-19T13:39:13.347Z,13.20
2022-10-19T13:40:48.598Z,13.30
2022-10-19T13:42:28.404Z,13.30
2022-10-19T13:44:11.708Z,13.30
2022-10-19T13:45:45.073Z,13.30
2022-10-19T13:49:40.242Z,13.40
2022-10-19T13:51:54.149Z,13.30
2022-10-19T13:54:04.891Z,13.30
2022-10-19T13:56:11.001Z,13.10
2022-10-19T13:57:57.026Z,13.00
2022-10-19T13:59:50.848Z,12.90
2022-10-19T14:01:34.832Z,12.80
2022-10-19T14:03:35.169Z,12.70
2022-10-19T14:05:16.214Z,12.70
2022-10-19T14:07:00.898Z,12.60
2022-10-19T14:08:54.488Z,12.40
2022-10-19T14:10:32.893Z,12.40
2022-10-19T14:12:33.922Z,12.30
2022-10-19T14:14:13.282Z,12.30
2022-10-19T14:15:54.604Z,12.30
2022-10-19T14:17:33.895Z,12.20
2022-10-19T14:19:14.177Z,12.20
2022-10-19T14:21:16.232Z,12.20
2022-10-19T14:22:48.302Z,12.20
2022-10-19T14:24:27.568Z,12.10
2022-10-19T14:26:12.393Z,12.10
2022-10-19T14:27:46.518Z,12.00
2022-10-19T14:29:18.900Z,11.90
2022-10-19T14:31:11.360Z,11.70
2022-10-19T14:32:43.456Z,11.60
2022-10-19T14:34:16.473Z,11.50
2022-10-19T14:35:52.157Z,11.50
2022-10-19T14:37:26.788Z,11.40
2022-10-19T14:39:00.722Z,11.40
2022-10-19T14:40:37.714Z,11.30
2022-10-19T14:42:11.219Z,11.20
2022-10-19T14:43:44.577Z,11.20
2022-10-19T14:45:18.563Z,11.00
2022-10-19T14:46:50.839Z,10.90
2022-10-19T14:48:22.835Z,10.90
2022-10-19T14:49:55.360Z,10.90
2022-10-19T14:51:46.156Z,10.90
2022-10-19T14:53:39.455Z,10.80
2022-10-19T14:55:18.286Z,10.80
2022-10-19T14:56:59.714Z,10.80
2022-10-19T14:58:39.546Z,10.70
2022-10-19T15:00:19.618Z,10.70
2022-10-19T15:01:55.446Z,10.60
2022-10-19T15:03:30.140Z,10.60
2022-10-19T15:05:05.947Z,10.50
2022-10-19T15:06:42.483Z,10.50
2022-10-19T15:08:30.848Z,10.40
2022-10-19T15:10:06.471Z,10.40
2022-10-19T15:11:41.375Z,10.40
2022-10-19T15:13:34.217Z,10.30
2022-10-19T15:15:22.103Z,10.30
2022-10-19T15:17:03.380Z,10.30
2022-10-19T15:18:49.587Z,10.30
2022-10-19T15:20:49.368Z,10.20
2022-10-19T15:22:40.649Z,10.10
2022-10-19T15:24:38.463Z,10.10
2022-10-19T15:26:26.010Z,10.10
2022-10-19T15:27:58.187Z,10.00
2022-10-19T15:29:30.275Z,10.00
2022-10-19T15:31:13.742Z,10.00
2022-10-19T15:32:48.531Z,10.00
2022-10-19T15:34:25.606Z,10.00
2022-10-19T15:36:07.670Z,9.90
2022-10-19T15:37:43.551Z,9.90
2022-10-19T15:39:33.011Z,9.80
2022-10-19T15:41:29.051Z,9.80
2022-10-19T15:43:01.534Z,9.80
2022-10-19T15:44:44.062Z,9.80
2022-10-19T15:46:31.622Z,9.80
2022-10-19T15:48:09.982Z,9.80
2022-10-19T15:49:42.058Z,9.80
2022-10-19T15:51:23.465Z,9.70
2022-10-19T15:52:55.511Z,9.70
2022-10-19T15:54:27.517Z,9.60
2022-10-19T15:56:00.153Z,9.60
2022-10-19T15:57:37.849Z,9.60
2022-10-19T15:59:18.569Z,9.60
2022-10-19T16:00:50.879Z,9.50
2022-10-19T16:02:25.151Z,9.50
2022-10-19T16:03:58.234Z,9.50
2022-10-19T16:05:30.612Z,9.40
2022-10-19T16:07:02.648Z,9.50
2022-10-19T16:08:35.215Z,9.40
2022-10-19T16:10:14.410Z,9.40
2022-10-19T16:11:47.092Z,9.40
2022-10-19T16:13:19.130Z,9.30
2022-10-19T16:14:51.456Z,9.30
2022-10-19T16:16:32.303Z,9.30
2022-10-19T16:18:04.867Z,9.30
2022-10-19T16:19:37.256Z,9.30
2022-10-19T16:21:09.289Z,9.30
2022-10-19T16:22:41.522Z,9.30
2022-10-19T16:24:13.752Z,9.30
2022-10-19T16:25:46.231Z,9.30
2022-10-19T16:27:18.327Z,9.20
2022-10-19T16:28:50.499Z,9.20
2022-10-19T16:30:22.883Z,9.20
2022-10-19T16:31:54.959Z,9.20
2022-10-19T16:33:27.321Z,9.20
2022-10-19T16:34:59.545Z,9.20
2022-10-19T16:36:31.544Z,9.20
2022-10-19T16:38:04.057Z,9.10
2022-10-19T16:39:36.292Z,9.10
2022-10-19T16:41:10.829Z,9.10
2022-10-19T16:42:42.856Z,9.10
2022-10-19T16:44:16.084Z,9.00
2022-10-19T16:45:48.250Z,9.00
2022-10-19T16:47:20.422Z,9.00
2022-10-19T16:48:53.735Z,9.00
2022-10-19T16:50:45.870Z,9.00
2022-10-19T16:52:18.085Z,9.00
2022-10-19T16:53:57.168Z,9.00
2022-10-19T16:56:03.283Z,9.10
2022-10-19T16:57:35.596Z,9.00
2022-10-19T16:59:08.370Z,9.00
2022-10-19T17:00:40.848Z,9.00
2022-10-19T17:02:14.159Z,9.00
2022-10-19T17:03:47.867Z,9.00
2022-10-19T17:05:19.959Z,8.90
2022-10-19T17:06:51.982Z,8.90
2022-10-19T17:08:36.630Z,8.90
2022-10-19T17:10:16.645Z,8.90
2022-10-19T17:11:49.121Z,8.80
2022-10-19T17:13:21.367Z,8.80
2022-10-19T17:14:57.980Z,8.80
2022-10-19T17:16:37.043Z,8.80
2022-10-19T17:18:09.596Z,8.80
2022-10-19T17:19:41.639Z,8.70
2022-10-19T17:21:17.249Z,8.70
2022-10-19T17:22:52.196Z,8.80
2022-10-19T17:24:25.533Z,8.70
2022-10-19T17:25:57.826Z,8.70
2022-10-19T17:27:30.074Z,8.70
2022-10-19T17:29:02.245Z,8.70
2022-10-19T17:30:34.252Z,8.70
2022-10-19T17:32:06.721Z,8.60
2022-10-19T17:33:41.416Z,8.60
2022-10-19T17:35:13.426Z,8.60
2022-10-19T17:36:46.218Z,8.60
2022-10-19T17:38:18.328Z,8.50
2022-10-19T17:39:51.257Z,8.60
2022-10-19T17:41:25.735Z,8.50
2022-10-19T17:42:58.090Z,8.60
2022-10-19T17:44:31.668Z,8.50
2022-10-19T17:46:06.605Z,8.50
2022-10-19T17:47:38.778Z,8.60
2022-10-19T17:49:11.342Z,8.60
2022-10-19T17:50:44.155Z,8.60
2022-10-19T17:52:16.219Z,8.60
2022-10-19T17:53:50.430Z,8.60
2022-10-19T17:55:23.162Z,8.60
2022-10-19T17:56:55.590Z,8.60
2022-10-19T17:58:28.617Z,8.60
2022-10-19T18:00:00.675Z,8.60
2022-10-19T18:01:33.202Z,8.60
2022-10-19T18:03:05.615Z,8.60
2022-10-19T18:04:37.871Z,8.60
2022-10-19T18:06:15.619Z,8.60
2022-10-19T18:07:49.398Z,8.70
2022-10-19T18:09:21.451Z,8.60
2022-10-19T18:10:57.111Z,8.60
2022-10-19T18:12:30.199Z,8.60
2022-10-19T18:14:02.549Z,8.60
2022-10-19T18:15:35.072Z,8.60
2022-10-19T18:17:07.406Z,8.60
2022-10-19T18:18:41.152Z,8.50
2022-10-19T18:20:13.879Z,8.50
2022-10-19T18:21:47.767Z,8.40
2022-10-19T18:23:20.355Z,8.40
2022-10-19T18:24:52.442Z,8.30
2022-10-19T18:26:27.615Z,8.30
2022-10-19T18:27:59.784Z,8.30
2022-10-19T18:29:32.281Z,8.20
2022-10-19T18:31:09.383Z,8.20
2022-10-19T18:32:42.094Z,8.20
2022-10-19T18:34:15.312Z,8.10
2022-10-19T18:35:47.414Z,8.10
2022-10-19T18:37:19.874Z,8.10
2022-10-19T18:38:57.166Z,8.10
2022-10-19T18:40:29.318Z,8.10
2022-10-19T18:42:01.624Z,8.00
2022-10-19T18:43:34.398Z,8.00
2022-10-19T18:45:07.465Z,8.00
2022-10-19T18:46:40.276Z,8.00
2022-10-19T18:48:12.297Z,7.90
2022-10-19T18:49:44.547Z,7.90
2022-10-19T18:51:18.947Z,7.80
2022-10-19T18:52:50.991Z,7.80
2022-10-19T18:54:24.339Z,7.70
2022-10-19T18:56:06.774Z,7.70
2022-10-19T18:57:39.530Z,7.60
2022-10-19T18:59:11.634Z,7.60
2022-10-19T19:00:45.700Z,7.60
2022-10-19T19:02:28.220Z,7.60
2022-10-19T19:04:09.648Z,7.60
2022-10-19T19:05:41.952Z,7.50
2022-10-19T19:07:14.338Z,7.50
2022-10-19T19:08:46.401Z,7.50
2022-10-19T19:10:18.429Z,7.40
2022-10-19T19:11:51.556Z,7.40
2022-10-19T19:13:24.375Z,7.40
2022-10-19T19:14:56.420Z,7.40
2022-10-19T19:16:30.244Z,7.40
2022-10-19T19:18:02.715Z,7.30
2022-10-19T19:19:34.782Z,7.30
2022-10-19T19:21:18.033Z,7.30
2022-10-19T19:22:50.201Z,7.30
2022-10-19T19:24:23.921Z,7.30
2022-10-19T19:25:56.558Z,7.30
2022-10-19T19:27:31.721Z,7.30
2022-10-19T19:29:04.479Z,7.30
2022-10-19T19:30:44.478Z,7.30
2022-10-19T19:32:17.592Z,7.30
2022-10-19T19:33:49.697Z,7.30
2022-10-19T19:35:22.000Z,7.20
2022-10-19T19:36:54.340Z,7.20
2022-10-19T19:38:26.887Z,7.20
2022-10-19T19:39:59.394Z,7.20
2022-10-19T19:41:34.154Z,7.20
2022-10-19T19:43:08.634Z,7.20
2022-10-19T19:44:40.644Z,7.20
2022-10-19T19:46:16.506Z,7.10
2022-10-19T19:47:48.828Z,7.10
2022-10-19T19:49:21.193Z,7.10
2022-10-19T19:50:53.838Z,7.10
2022-10-19T19:52:26.055Z,7.10
2022-10-19T19:53:58.991Z,7.10
2022-10-19T19:55:38.176Z,7.10
2022-10-19T19:57:11.528Z,7.10
2022-10-19T19:58:44.500Z,7.10
2022-10-19T20:00:17.227Z,7.10
2022-10-19T20:01:49.576Z,7.10
2022-10-19T20:03:21.643Z,7.10
2022-10-19T20:04:53.679Z,7.10
2022-10-19T20:06:26.315Z,7.10
2022-10-19T20:07:58.639Z,7.10
2022-10-19T20:09:30.864Z,7.00
2022-10-19T20:11:06.450Z,7.10
2022-10-19T20:12:38.468Z,7.00
2022-10-19T20:14:11.842Z,7.00
2022-10-19T20:15:44.036Z,7.00
2022-10-19T20:17:16.398Z,7.00
2022-10-19T20:18:50.757Z,7.00
2022-10-19T20:20:23.043Z,6.90
2022-10-19T20:21:56.482Z,6.90
2022-10-19T20:23:29.775Z,6.90
2022-10-19T20:25:02.103Z,6.80
2022-10-19T20:26:34.484Z,6.80
2022-10-19T20:28:06.811Z,6.80
2022-10-19T20:29:39.670Z,6.70
2022-10-19T20:31:12.067Z,6.70
2022-10-19T20:32:44.131Z,6.70
2022-10-19T20:34:19.515Z,6.70
2022-10-19T20:35:55.210Z,6.70
2022-10-19T20:37:27.417Z,6.60
2022-10-19T20:39:00.207Z,6.60
2022-10-19T20:40:32.369Z,6.60
2022-10-19T20:42:04.594Z,6.50
2022-10-19T20:43:37.884Z,6.50
2022-10-19T20:45:13.163Z,6.50
2022-10-19T20:46:45.319Z,6.40
2022-10-19T20:48:17.677Z,6.40
2022-10-19T20:49:49.725Z,6.40
2022-10-19T20:51:30.828Z,6.40
2022-10-19T20:53:04.783Z,6.40
2022-10-19T20:54:37.179Z,6.30
2022-10-19T20:56:10.837Z,6.30
2022-10-19T20:57:42.889Z,6.30
2022-10-19T20:59:18.427Z,6.30
2022-10-19T21:00:50.510Z,6.30
2022-10-19T21:02:22.560Z,6.20
2022-10-19T21:03:57.174Z,6.20
2022-10-19T21:05:29.274Z,6.20
2022-10-19T21:07:01.399Z,6.20
2022-10-19T21:08:35.193Z,6.10
2022-10-19T21:10:07.657Z,6.10
2022-10-19T21:11:41.271Z,6.00